KLM6B EDDL-EICK
Flight info
| Callsign | KLM6B |
|---|---|
| Flight time | 1h 23m |
| Altitude | 31000 |
| Route | NETEX6T NETEX DCT RASCA DCT MID L620 NOVMA DCT VAPAL VAPAL1G |
| Aircraft | A320/M-SDE3FGHIRWY/LB1 |
Departure
| Time | 2026-05-04 13:22 |
|---|---|
| Airport | Düsseldorf Airport (EDDL) |
Arrival
| Time | 2026-05-04 14:46 |
|---|---|
| Airport | Cork International Airport (EICK) |
| Time | Latitude | Longitude | Altitude | Speed | Heading |
|---|---|---|---|---|---|
| 2026-05-04 13:12 | 51.29009 | 6.78214 | 131 ft | 0 kts | 323° |
| 2026-05-04 13:18 | 51.29019 | 6.78205 | 130 ft | 3 kts | 338° |
| 2026-05-04 13:19 | 51.29057 | 6.78200 | 132 ft | 8 kts | 359° |
| 2026-05-04 13:19 | 51.29130 | 6.78203 | 135 ft | 12 kts | 3° |
| 2026-05-04 13:19 | 51.29205 | 6.78210 | 136 ft | 6 kts | 4° |
| 2026-05-04 13:19 | 51.29258 | 6.78176 | 137 ft | 0 kts | 328° |
| 2026-05-04 13:20 | 51.29258 | 6.78175 | 137 ft | 0 kts | 328° |
| 2026-05-04 13:20 | 51.29261 | 6.78172 | 137 ft | 0 kts | 329° |
| 2026-05-04 13:20 | 51.29265 | 6.78169 | 138 ft | 2 kts | 328° |
| 2026-05-04 13:21 | 51.29273 | 6.78161 | 138 ft | 2 kts | 327° |
| 2026-05-04 13:21 | 51.29299 | 6.78134 | 140 ft | 7 kts | 326° |
| 2026-05-04 13:21 | 51.29323 | 6.78055 | 139 ft | 12 kts | 234° |
| 2026-05-04 13:21 | 51.29295 | 6.78005 | 138 ft | 14 kts | 229° |
| 2026-05-04 13:22 | 51.29024 | 6.77431 | 126 ft | 113 kts | 232° |
| 2026-05-04 13:22 | 51.28440 | 6.76125 | 465 ft | 156 kts | 236° |
| 2026-05-04 13:22 | 51.27786 | 6.74693 | 1503 ft | 165 kts | 233° |
| 2026-05-04 13:22 | 51.27070 | 6.73137 | 2443 ft | 185 kts | 237° |
| 2026-05-04 13:23 | 51.26767 | 6.71086 | 2964 ft | 207 kts | 277° |
| 2026-05-04 13:23 | 51.27345 | 6.68844 | 3443 ft | 231 kts | 296° |
| 2026-05-04 13:23 | 51.28138 | 6.66470 | 4222 ft | 243 kts | 296° |
| 2026-05-04 13:23 | 51.28942 | 6.64108 | 5181 ft | 248 kts | 296° |
| 2026-05-04 13:24 | 51.29931 | 6.61831 | 6112 ft | 255 kts | 315° |
| 2026-05-04 13:24 | 51.31365 | 6.60115 | 7021 ft | 259 kts | 320° |
| 2026-05-04 13:24 | 51.32491 | 6.57900 | 7908 ft | 259 kts | 296° |
| 2026-05-04 13:25 | 51.33926 | 6.52230 | 9505 ft | 283 kts | 288° |
| 2026-05-04 13:25 | 51.34596 | 6.49241 | 10343 ft | 292 kts | 289° |
| 2026-05-04 13:25 | 51.35345 | 6.46082 | 10734 ft | 314 kts | 289° |
| 2026-05-04 13:25 | 51.35906 | 6.42655 | 11401 ft | 322 kts | 277° |
| 2026-05-04 13:26 | 51.35983 | 6.39059 | 12202 ft | 326 kts | 264° |
| 2026-05-04 13:26 | 51.35530 | 6.35497 | 13041 ft | 330 kts | 250° |
| 2026-05-04 13:26 | 51.34547 | 6.32159 | 13863 ft | 334 kts | 240° |
| 2026-05-04 13:26 | 51.33369 | 6.28937 | 14603 ft | 337 kts | 236° |
| 2026-05-04 13:27 | 51.32219 | 6.25657 | 15313 ft | 342 kts | 251° |
| 2026-05-04 13:27 | 51.31949 | 6.21869 | 16039 ft | 348 kts | 270° |
| 2026-05-04 13:27 | 51.32030 | 6.17973 | 16786 ft | 352 kts | 270° |
| 2026-05-04 13:27 | 51.32067 | 6.14195 | 17492 ft | 355 kts | 268° |
| 2026-05-04 13:28 | 51.32062 | 6.10093 | 18243 ft | 359 kts | 267° |
| 2026-05-04 13:28 | 51.32029 | 6.06078 | 18885 ft | 363 kts | 267° |
| 2026-05-04 13:28 | 51.31976 | 6.02024 | 19571 ft | 366 kts | 266° |
| 2026-05-04 13:28 | 51.31916 | 5.97941 | 20288 ft | 368 kts | 266° |
| 2026-05-04 13:29 | 51.31856 | 5.93837 | 21006 ft | 370 kts | 266° |
| 2026-05-04 13:29 | 51.31798 | 5.89715 | 21683 ft | 373 kts | 265° |
| 2026-05-04 13:29 | 51.31740 | 5.85557 | 22348 ft | 375 kts | 265° |
| 2026-05-04 13:29 | 51.31683 | 5.81364 | 23029 ft | 378 kts | 265° |
| 2026-05-04 13:30 | 51.31669 | 5.80281 | 23204 ft | 379 kts | 265° |
| 2026-05-04 13:30 | 51.31609 | 5.76376 | 23701 ft | 383 kts | 265° |
| 2026-05-04 13:30 | 51.31550 | 5.72116 | 24321 ft | 384 kts | 265° |
| 2026-05-04 13:31 | 51.31492 | 5.67847 | 24896 ft | 386 kts | 265° |
| 2026-05-04 13:31 | 51.31434 | 5.63559 | 25443 ft | 388 kts | 265° |
| 2026-05-04 13:31 | 51.31372 | 5.59235 | 25974 ft | 390 kts | 265° |
| 2026-05-04 13:31 | 51.31306 | 5.54889 | 26494 ft | 392 kts | 264° |
| 2026-05-04 13:32 | 51.31239 | 5.50523 | 27002 ft | 395 kts | 264° |
| 2026-05-04 13:32 | 51.31168 | 5.46120 | 27500 ft | 397 kts | 264° |
| 2026-05-04 13:32 | 51.31095 | 5.41693 | 27980 ft | 400 kts | 264° |
| 2026-05-04 13:32 | 51.31022 | 5.37233 | 28456 ft | 402 kts | 264° |
| 2026-05-04 13:33 | 51.30948 | 5.32805 | 28918 ft | 405 kts | 264° |
| 2026-05-04 13:33 | 51.30865 | 5.27961 | 29414 ft | 408 kts | 264° |
| 2026-05-04 13:33 | 51.30698 | 5.18832 | 30282 ft | 413 kts | 264° |
| 2026-05-04 13:33 | 51.30520 | 5.09617 | 31134 ft | 416 kts | 263° |
| 2026-05-04 13:34 | 51.30336 | 5.00311 | 31954 ft | 420 kts | 263° |
| 2026-05-04 13:34 | 51.30161 | 4.91239 | 31991 ft | 394 kts | 263° |
| 2026-05-04 13:34 | 51.29986 | 4.82737 | 31997 ft | 379 kts | 263° |
| 2026-05-04 13:34 | 51.29790 | 4.74312 | 31997 ft | 380 kts | 262° |
| 2026-05-04 13:35 | 51.29205 | 4.49151 | 32001 ft | 381 kts | 262° |
| 2026-05-04 13:36 | 51.28761 | 4.32252 | 32001 ft | 381 kts | 262° |
| 2026-05-04 13:36 | 51.28326 | 4.15292 | 31995 ft | 382 kts | 262° |
| 2026-05-04 13:37 | 51.27844 | 3.98358 | 31986 ft | 382 kts | 262° |
| 2026-05-04 13:38 | 51.27983 | 3.90246 | 31038 ft | 323 kts | 278° |
| 2026-05-04 13:38 | 51.28433 | 3.86980 | 31929 ft | 282 kts | 278° |
| 2026-05-04 13:38 | 51.28870 | 3.84057 | 31745 ft | 291 kts | 268° |
| 2026-05-04 13:38 | 51.28444 | 3.80680 | 30784 ft | 314 kts | 234° |
| 2026-05-04 13:39 | 51.27119 | 3.77798 | 30711 ft | 328 kts | 229° |
| 2026-05-04 13:39 | 51.26092 | 3.74662 | 31665 ft | 321 kts | 250° |
| 2026-05-04 13:39 | 51.25826 | 3.71035 | 31935 ft | 338 kts | 265° |
| 2026-05-04 13:39 | 51.25980 | 3.67197 | 31995 ft | 356 kts | 270° |
| 2026-05-04 13:40 | 51.26248 | 3.63181 | 32004 ft | 371 kts | 270° |
| 2026-05-04 13:40 | 51.26457 | 3.58993 | 31997 ft | 384 kts | 267° |
| 2026-05-04 13:40 | 51.26532 | 3.54667 | 32005 ft | 396 kts | 264° |
| 2026-05-04 13:40 | 51.26476 | 3.50200 | 32000 ft | 408 kts | 262° |
| 2026-05-04 13:41 | 51.26324 | 3.45608 | 32003 ft | 420 kts | 261° |
| 2026-05-04 13:41 | 51.26057 | 3.39510 | 32003 ft | 434 kts | 261° |
| 2026-05-04 13:42 | 51.25481 | 3.25810 | 32003 ft | 454 kts | 262° |
| 2026-05-04 13:42 | 51.25132 | 3.15781 | 32006 ft | 463 kts | 262° |
| 2026-05-04 13:42 | 51.24933 | 3.09870 | 32341 ft | 459 kts | 262° |
| 2026-05-04 13:42 | 51.24767 | 3.04820 | 32865 ft | 452 kts | 262° |
| 2026-05-04 13:43 | 51.24667 | 3.01704 | 33196 ft | 448 kts | 262° |
| 2026-05-04 13:43 | 51.24505 | 2.96773 | 33740 ft | 442 kts | 262° |
| 2026-05-04 13:43 | 51.24330 | 2.92026 | 34233 ft | 421 kts | 261° |
| 2026-05-04 13:43 | 51.24151 | 2.87455 | 34153 ft | 408 kts | 261° |
| 2026-05-04 13:44 | 51.23966 | 2.82933 | 33934 ft | 398 kts | 261° |
| 2026-05-04 13:44 | 51.23787 | 2.78587 | 33679 ft | 388 kts | 261° |
| 2026-05-04 13:44 | 51.23611 | 2.74321 | 33422 ft | 383 kts | 261° |
| 2026-05-04 13:44 | 51.23435 | 2.70084 | 33186 ft | 382 kts | 261° |
| 2026-05-04 13:45 | 51.23259 | 2.65860 | 32941 ft | 382 kts | 261° |
| 2026-05-04 13:45 | 51.23087 | 2.61676 | 32708 ft | 383 kts | 261° |
| 2026-05-04 13:45 | 51.22913 | 2.57425 | 32470 ft | 384 kts | 261° |
| 2026-05-04 13:45 | 51.22738 | 2.53166 | 32235 ft | 386 kts | 261° |
| 2026-05-04 13:46 | 51.22559 | 2.48837 | 32033 ft | 387 kts | 261° |
| 2026-05-04 13:46 | 51.22384 | 2.44619 | 32009 ft | 387 kts | 261° |
| 2026-05-04 13:46 | 51.22024 | 2.36031 | 32018 ft | 388 kts | 261° |
| 2026-05-04 13:47 | 51.21654 | 2.27446 | 32017 ft | 388 kts | 261° |
| 2026-05-04 13:47 | 51.21280 | 2.18800 | 32022 ft | 389 kts | 261° |
| 2026-05-04 13:48 | 51.20894 | 2.10251 | 32020 ft | 389 kts | 261° |
| 2026-05-04 13:48 | 51.20500 | 2.01644 | 32027 ft | 389 kts | 261° |
| 2026-05-04 13:49 | 51.20102 | 1.92982 | 32030 ft | 390 kts | 261° |
| 2026-05-04 13:49 | 51.19693 | 1.84369 | 32033 ft | 390 kts | 261° |
| 2026-05-04 13:50 | 51.19286 | 1.75812 | 32033 ft | 390 kts | 261° |
| 2026-05-04 13:50 | 51.18871 | 1.67194 | 32031 ft | 390 kts | 261° |
| 2026-05-04 13:51 | 51.18449 | 1.58570 | 32032 ft | 391 kts | 261° |
| 2026-05-04 13:51 | 51.18017 | 1.49879 | 32032 ft | 391 kts | 261° |
| 2026-05-04 13:52 | 51.17364 | 1.36930 | 32033 ft | 391 kts | 261° |
| 2026-05-04 13:53 | 51.16920 | 1.28308 | 32034 ft | 391 kts | 261° |
| 2026-05-04 13:53 | 51.16468 | 1.19736 | 32041 ft | 391 kts | 261° |
| 2026-05-04 13:54 | 51.15593 | 1.03378 | 32039 ft | 390 kts | 261° |
| 2026-05-04 13:55 | 51.14167 | 0.77732 | 32038 ft | 391 kts | 261° |
| 2026-05-04 13:55 | 51.12691 | 0.52010 | 32020 ft | 391 kts | 261° |
| 2026-05-04 13:56 | 51.11783 | 0.36804 | 32019 ft | 391 kts | 261° |
| 2026-05-04 13:57 | 51.10550 | 0.16590 | 32023 ft | 392 kts | 261° |
| 2026-05-04 13:58 | 51.09505 | -0.00255 | 32043 ft | 392 kts | 261° |
| 2026-05-04 13:58 | 51.08727 | -0.12467 | 32049 ft | 393 kts | 260° |
| 2026-05-04 13:59 | 51.08240 | -0.20051 | 32050 ft | 393 kts | 260° |
| 2026-05-04 14:00 | 51.07513 | -0.31165 | 32052 ft | 393 kts | 260° |
| 2026-05-04 14:00 | 51.06646 | -0.44112 | 32046 ft | 393 kts | 260° |
| 2026-05-04 14:01 | 51.06060 | -0.52749 | 32040 ft | 393 kts | 260° |
| 2026-05-04 14:02 | 51.04982 | -0.65626 | 32034 ft | 390 kts | 254° |
| 2026-05-04 14:02 | 51.04059 | -0.74136 | 32029 ft | 395 kts | 264° |
| 2026-05-04 14:02 | 51.04194 | -0.78515 | 32038 ft | 400 kts | 275° |
| 2026-05-04 14:03 | 51.04785 | -0.82854 | 32040 ft | 403 kts | 279° |
| 2026-05-04 14:03 | 51.06107 | -0.91505 | 32035 ft | 403 kts | 279° |
| 2026-05-04 14:04 | 51.08053 | -1.04527 | 32044 ft | 404 kts | 279° |
| 2026-05-04 14:04 | 51.09343 | -1.13229 | 32033 ft | 404 kts | 279° |
| 2026-05-04 14:05 | 51.11263 | -1.26300 | 32020 ft | 405 kts | 278° |
| 2026-05-04 14:06 | 51.12360 | -1.34545 | 32031 ft | 405 kts | 278° |
| 2026-05-04 14:06 | 51.13390 | -1.42273 | 32022 ft | 405 kts | 279° |
| 2026-05-04 14:07 | 51.14357 | -1.49503 | 32022 ft | 406 kts | 281° |
| 2026-05-04 14:07 | 51.15029 | -1.57216 | 32032 ft | 403 kts | 276° |
| 2026-05-04 14:08 | 51.16234 | -1.65975 | 32033 ft | 406 kts | 281° |
| 2026-05-04 14:08 | 51.17376 | -1.73128 | 31555 ft | 403 kts | 280° |
| 2026-05-04 14:08 | 51.18004 | -1.77488 | 30947 ft | 404 kts | 278° |
| 2026-05-04 14:09 | 51.19138 | -1.86266 | 29724 ft | 405 kts | 277° |
| 2026-05-04 14:09 | 51.19678 | -1.90672 | 29004 ft | 406 kts | 277° |
| 2026-05-04 14:10 | 51.20763 | -1.99529 | 27533 ft | 408 kts | 278° |
| 2026-05-04 14:10 | 51.21318 | -2.03977 | 26777 ft | 410 kts | 278° |
| 2026-05-04 14:10 | 51.21881 | -2.08434 | 26191 ft | 409 kts | 278° |
| 2026-05-04 14:10 | 51.22450 | -2.12910 | 26001 ft | 413 kts | 278° |
| 2026-05-04 14:11 | 51.23020 | -2.17395 | 26008 ft | 414 kts | 279° |
| 2026-05-04 14:11 | 51.24153 | -2.26413 | 26019 ft | 415 kts | 278° |
| 2026-05-04 14:11 | 51.24714 | -2.30936 | 26023 ft | 415 kts | 278° |
| 2026-05-04 14:12 | 51.25272 | -2.35457 | 26025 ft | 416 kts | 278° |
| 2026-05-04 14:12 | 51.25830 | -2.39991 | 26027 ft | 416 kts | 278° |
| 2026-05-04 14:12 | 51.26944 | -2.49090 | 26692 ft | 417 kts | 278° |
| 2026-05-04 14:13 | 51.27495 | -2.53623 | 27446 ft | 415 kts | 278° |
| 2026-05-04 14:13 | 51.28043 | -2.58137 | 28152 ft | 413 kts | 278° |
| 2026-05-04 14:13 | 51.28587 | -2.62641 | 28838 ft | 412 kts | 278° |
| 2026-05-04 14:13 | 51.29127 | -2.67122 | 29510 ft | 411 kts | 278° |
| 2026-05-04 14:14 | 51.29666 | -2.71601 | 30163 ft | 410 kts | 278° |
| 2026-05-04 14:14 | 51.30735 | -2.80527 | 31298 ft | 409 kts | 279° |
| 2026-05-04 14:14 | 51.31265 | -2.84983 | 31840 ft | 410 kts | 279° |
| 2026-05-04 14:15 | 51.32326 | -2.93943 | 32030 ft | 410 kts | 279° |
| 2026-05-04 14:15 | 51.33380 | -3.02914 | 32030 ft | 411 kts | 279° |
| 2026-05-04 14:16 | 51.35582 | -3.21869 | 32031 ft | 412 kts | 279° |
| 2026-05-04 14:17 | 51.38678 | -3.48952 | 32032 ft | 414 kts | 279° |
| 2026-05-04 14:18 | 51.41733 | -3.76231 | 32035 ft | 415 kts | 279° |
| 2026-05-04 14:19 | 51.45709 | -4.12789 | 32026 ft | 417 kts | 279° |
| 2026-05-04 14:19 | 51.47658 | -4.31153 | 32025 ft | 418 kts | 279° |
| 2026-05-04 14:20 | 51.49590 | -4.49576 | 32022 ft | 419 kts | 280° |
| 2026-05-04 14:20 | 51.51504 | -4.68052 | 32023 ft | 421 kts | 280° |
| 2026-05-04 14:21 | 51.54316 | -4.95933 | 32026 ft | 423 kts | 280° |
| 2026-05-04 14:21 | 51.56173 | -5.14657 | 32028 ft | 425 kts | 280° |
| 2026-05-04 14:22 | 51.57992 | -5.33458 | 32030 ft | 427 kts | 280° |
| 2026-05-04 14:22 | 51.59809 | -5.52376 | 32037 ft | 429 kts | 280° |
| 2026-05-04 14:23 | 51.62082 | -5.81061 | 32056 ft | 446 kts | 274° |
| 2026-05-04 14:23 | 51.62287 | -5.91321 | 32050 ft | 469 kts | 273° |
| 2026-05-04 14:24 | 51.62375 | -5.97278 | 32047 ft | 468 kts | 273° |
| 2026-05-04 14:24 | 51.62450 | -6.02378 | 31808 ft | 446 kts | 273° |
| 2026-05-04 14:24 | 51.62526 | -6.07301 | 31065 ft | 436 kts | 274° |
| 2026-05-04 14:24 | 51.62608 | -6.12139 | 30338 ft | 430 kts | 274° |
| 2026-05-04 14:25 | 51.62695 | -6.16931 | 29492 ft | 425 kts | 274° |
| 2026-05-04 14:25 | 51.62860 | -6.26318 | 27919 ft | 414 kts | 274° |
| 2026-05-04 14:25 | 51.62935 | -6.30919 | 27181 ft | 408 kts | 274° |
| 2026-05-04 14:26 | 51.63008 | -6.35449 | 26453 ft | 402 kts | 274° |
| 2026-05-04 14:26 | 51.63081 | -6.39915 | 25736 ft | 397 kts | 274° |
| 2026-05-04 14:26 | 51.63151 | -6.44322 | 25020 ft | 391 kts | 273° |
| 2026-05-04 14:26 | 51.63217 | -6.48674 | 24311 ft | 386 kts | 273° |
| 2026-05-04 14:27 | 51.63279 | -6.52952 | 23615 ft | 380 kts | 273° |
| 2026-05-04 14:27 | 51.63338 | -6.57176 | 22801 ft | 375 kts | 272° |
| 2026-05-04 14:27 | 51.63395 | -6.61342 | 21996 ft | 370 kts | 272° |
| 2026-05-04 14:27 | 51.63450 | -6.65450 | 21235 ft | 366 kts | 272° |
| 2026-05-04 14:28 | 51.63505 | -6.69535 | 20824 ft | 363 kts | 272° |
| 2026-05-04 14:28 | 51.63556 | -6.73584 | 20432 ft | 360 kts | 272° |
| 2026-05-04 14:28 | 51.63607 | -6.77595 | 20039 ft | 357 kts | 272° |
| 2026-05-04 14:28 | 51.63657 | -6.81578 | 19645 ft | 355 kts | 272° |
| 2026-05-04 14:29 | 51.63745 | -6.89469 | 18870 ft | 350 kts | 272° |
| 2026-05-04 14:29 | 51.63824 | -6.97255 | 18085 ft | 346 kts | 271° |
| 2026-05-04 14:30 | 51.63862 | -7.01112 | 17654 ft | 344 kts | 272° |
| 2026-05-04 14:30 | 51.63900 | -7.04949 | 17245 ft | 341 kts | 272° |
| 2026-05-04 14:30 | 51.63978 | -7.12530 | 16452 ft | 336 kts | 272° |
| 2026-05-04 14:31 | 51.64013 | -7.16276 | 16064 ft | 334 kts | 272° |
| 2026-05-04 14:31 | 51.64077 | -7.23706 | 15300 ft | 330 kts | 272° |
| 2026-05-04 14:32 | 51.64130 | -7.31038 | 14576 ft | 325 kts | 272° |
| 2026-05-04 14:32 | 51.64157 | -7.34667 | 14223 ft | 323 kts | 272° |
| 2026-05-04 14:32 | 51.64182 | -7.38278 | 13868 ft | 321 kts | 272° |
| 2026-05-04 14:32 | 51.64206 | -7.41814 | 13484 ft | 319 kts | 272° |
| 2026-05-04 14:33 | 51.64231 | -7.45420 | 13097 ft | 317 kts | 272° |
| 2026-05-04 14:33 | 51.64257 | -7.48952 | 12719 ft | 314 kts | 272° |
| 2026-05-04 14:33 | 51.64281 | -7.52414 | 12350 ft | 312 kts | 272° |
| 2026-05-04 14:33 | 51.64301 | -7.55943 | 11963 ft | 310 kts | 271° |
| 2026-05-04 14:34 | 51.64317 | -7.59401 | 11606 ft | 308 kts | 271° |
| 2026-05-04 14:34 | 51.64334 | -7.62841 | 11251 ft | 306 kts | 271° |
| 2026-05-04 14:34 | 51.64353 | -7.66248 | 10886 ft | 304 kts | 271° |
| 2026-05-04 14:34 | 51.64368 | -7.69641 | 10540 ft | 302 kts | 271° |
| 2026-05-04 14:35 | 51.64380 | -7.73008 | 10198 ft | 300 kts | 271° |
| 2026-05-04 14:35 | 51.64392 | -7.76342 | 9894 ft | 297 kts | 271° |
| 2026-05-04 14:35 | 51.64403 | -7.79654 | 9528 ft | 294 kts | 271° |
| 2026-05-04 14:35 | 51.64415 | -7.82936 | 9174 ft | 292 kts | 271° |
| 2026-05-04 14:36 | 51.64427 | -7.86196 | 8820 ft | 290 kts | 271° |
| 2026-05-04 14:36 | 51.64437 | -7.89427 | 8470 ft | 288 kts | 271° |
| 2026-05-04 14:36 | 51.64445 | -7.92645 | 8131 ft | 286 kts | 271° |
| 2026-05-04 14:36 | 51.64450 | -7.95837 | 7791 ft | 284 kts | 271° |
| 2026-05-04 14:37 | 51.64455 | -7.99005 | 7457 ft | 282 kts | 271° |
| 2026-05-04 14:37 | 51.64456 | -8.01096 | 7237 ft | 281 kts | 271° |
| 2026-05-04 14:37 | 51.64454 | -8.03989 | 6937 ft | 279 kts | 271° |
| 2026-05-04 14:37 | 51.64447 | -8.07099 | 6607 ft | 277 kts | 271° |
| 2026-05-04 14:38 | 51.64437 | -8.10190 | 6320 ft | 273 kts | 271° |
| 2026-05-04 14:38 | 51.64424 | -8.13162 | 6023 ft | 260 kts | 271° |
| 2026-05-04 14:38 | 51.64407 | -8.16045 | 5493 ft | 256 kts | 271° |
| 2026-05-04 14:38 | 51.64382 | -8.18899 | 4927 ft | 254 kts | 271° |
| 2026-05-04 14:39 | 51.64349 | -8.21727 | 4452 ft | 248 kts | 271° |
| 2026-05-04 14:39 | 51.64312 | -8.24405 | 4324 ft | 232 kts | 271° |
| 2026-05-04 14:39 | 51.64274 | -8.26921 | 4195 ft | 218 kts | 271° |
| 2026-05-04 14:40 | 51.64191 | -8.31545 | 3636 ft | 201 kts | 271° |
| 2026-05-04 14:40 | 51.64148 | -8.33791 | 3211 ft | 200 kts | 271° |
| 2026-05-04 14:40 | 51.64134 | -8.35996 | 3079 ft | 191 kts | 276° |
| 2026-05-04 14:40 | 51.64239 | -8.38178 | 3149 ft | 211 kts | 282° |
| 2026-05-04 14:41 | 51.64892 | -8.40233 | 2873 ft | 200 kts | 326° |
| 2026-05-04 14:41 | 51.66118 | -8.40864 | 2950 ft | 184 kts | 8° |
| 2026-05-04 14:41 | 51.68630 | -8.40371 | 3002 ft | 185 kts | 353° |
| 2026-05-04 14:42 | 51.71059 | -8.41442 | 2976 ft | 178 kts | 343° |
| 2026-05-04 14:42 | 51.72201 | -8.42090 | 2840 ft | 167 kts | 342° |
| 2026-05-04 14:42 | 51.73261 | -8.42707 | 2626 ft | 158 kts | 342° |
| 2026-05-04 14:43 | 51.74270 | -8.43298 | 2411 ft | 151 kts | 343° |
| 2026-05-04 14:43 | 51.75230 | -8.43863 | 2201 ft | 142 kts | 343° |
| 2026-05-04 14:43 | 51.76119 | -8.44386 | 2023 ft | 132 kts | 342° |
| 2026-05-04 14:43 | 51.76966 | -8.44885 | 1855 ft | 128 kts | 342° |
| 2026-05-04 14:44 | 51.77796 | -8.45373 | 1681 ft | 127 kts | 343° |
| 2026-05-04 14:44 | 51.78620 | -8.45858 | 1501 ft | 125 kts | 342° |
| 2026-05-04 14:44 | 51.79431 | -8.46337 | 1334 ft | 124 kts | 342° |
| 2026-05-04 14:44 | 51.80230 | -8.46809 | 1178 ft | 122 kts | 342° |
| 2026-05-04 14:45 | 51.81027 | -8.47279 | 986 ft | 121 kts | 341° |
| 2026-05-04 14:45 | 51.81815 | -8.47744 | 821 ft | 120 kts | 341° |
| 2026-05-04 14:45 | 51.82593 | -8.48204 | 661 ft | 119 kts | 341° |
| 2026-05-04 14:45 | 51.83366 | -8.48660 | 507 ft | 112 kts | 340° |
| 2026-05-04 14:46 | 51.83898 | -8.48975 | 501 ft | 40 kts | 339° |
| 2026-05-04 14:46 | 51.83972 | -8.49019 | 502 ft | 9 kts | 340° |
| 2026-05-04 14:46 | 51.84081 | -8.49078 | 506 ft | 21 kts | 342° |
| 2026-05-04 14:46 | 51.84226 | -8.49159 | 506 ft | 24 kts | 334° |
| 2026-05-04 14:47 | 51.84392 | -8.49262 | 504 ft | 28 kts | 347° |
| 2026-05-04 14:47 | 51.84585 | -8.49373 | 504 ft | 31 kts | 339° |
| 2026-05-04 14:47 | 51.84687 | -8.49450 | 502 ft | 12 kts | 333° |
| 2026-05-04 14:47 | 51.84776 | -8.49441 | 504 ft | 14 kts | 26° |
| 2026-05-04 14:48 | 51.84803 | -8.49358 | 504 ft | 0 kts | 81° |
| 2026-05-04 14:48 | 51.84803 | -8.49353 | 504 ft | 0 kts | 82° |
| 2026-05-04 14:48 | 51.84804 | -8.49344 | 504 ft | 3 kts | 82° |
| 2026-05-04 14:48 | 51.84806 | -8.49296 | 504 ft | 6 kts | 84° |
| 2026-05-04 14:49 | 51.84814 | -8.49207 | 505 ft | 10 kts | 79° |
| 2026-05-04 14:49 | 51.84830 | -8.49119 | 505 ft | 7 kts | 69° |
| 2026-05-04 14:49 | 51.84835 | -8.49096 | 505 ft | 3 kts | 69° |
| 2026-05-04 14:49 | 51.84841 | -8.49068 | 505 ft | 2 kts | 71° |
| 2026-05-04 14:50 | 51.84845 | -8.49052 | 505 ft | 0 kts | 70° |